Terminal Aerodrome Forecast
Issued by NWS Charleston, WV

Current Version | Previous Version | Text Only | Print | Product List | Glossary Off
Versions: 1 2 3 4 5 6 7 8 9 10 11 12 13 14 15 16 17 18 19 20 21 22 23 24 25 26 27

000
FTUS41 KRLX 261100
TAFPKB
TAF
KPKB 261132Z 2612/2712 00000KT 6SM BR SKC
      TEMPO 2612/2613 2SM BR SCT002
     FM261300 17005KT P6SM FEW050
     FM270600 00000KT 6SM BR FEW050
     FM271000 00000KT P6SM BKN050=

USA.gov is the U.S. government's official web portal to all federal, state and local government web resources and services.